Time;durP1;ratioP1;P1;durP2;ratioP2;P2;SDS_P1;SDS_P2;PMS_P1;PMS_P2;Temp;Humidity;BMP_temperature;BMP_pressure;BME280_temperature;BME280_humidity;BME280_pressure;Samples;Min_cycle;Max_cycle;Signal;HPM_P1;HPM_P2
2023/03/19 00:01:56;;;;;;;21.55;15.32;;;9.70;99.90;;;;;;4985931;28;20042;-79
2023/03/19 00:04:23;;;;;;;23.50;15.85;;;9.70;99.90;;;;;;4971303;28;20759;-79
2023/03/19 00:06:49;;;;;;;23.08;16.27;;;9.70;99.90;;;;;;5002245;28;21155;-79
2023/03/19 00:09:14;;;;;;;25.65;16.50;;;9.60;99.90;;;;;;4985934;28;20095;-79
2023/03/19 00:11:41;;;;;;;19.52;15.07;;;9.70;99.90;;;;;;4974665;28;20029;-79
2023/03/19 00:14:06;;;;;;;21.67;14.40;;;9.60;99.90;;;;;;4965084;28;20048;-79
2023/03/19 00:16:32;;;;;;;20.95;15.43;;;9.60;99.90;;;;;;4986159;28;20488;-79
2023/03/19 00:18:59;;;;;;;22.48;15.82;;;9.60;99.90;;;;;;4987282;28;20140;-79
2023/03/19 00:21:24;;;;;;;22.88;16.50;;;9.60;99.90;;;;;;4988618;28;20050;-79
2023/03/19 00:23:50;;;;;;;20.35;15.82;;;9.60;99.90;;;;;;5006849;28;20441;-79
2023/03/19 00:26:16;;;;;;;24.10;16.48;;;9.60;99.90;;;;;;4977705;28;20711;-79
2023/03/19 00:28:42;;;;;;;22.00;16.02;;;9.60;99.90;;;;;;4977003;28;20041;-79
2023/03/19 00:31:11;;;;;;;21.08;16.10;;;9.50;99.90;;;;;;4961722;28;20518;-79
2023/03/19 00:33:37;;;;;;;23.80;16.50;;;9.60;99.90;;;;;;4989980;28;20043;-79
2023/03/19 00:36:03;;;;;;;23.65;16.55;;;9.60;99.90;;;;;;4979087;28;20042;-79
2023/03/19 00:38:29;;;;;;;22.58;16.80;;;9.50;99.90;;;;;;5008326;28;20084;-79
2023/03/19 00:40:54;;;;;;;22.77;15.82;;;9.60;99.90;;;;;;4994088;28;20129;-79
2023/03/19 00:43:20;;;;;;;24.35;17.13;;;9.60;99.90;;;;;;4976346;28;20042;-79
2023/03/19 00:45:46;;;;;;;22.70;16.92;;;9.60;99.90;;;;;;4989345;28;20089;-79
2023/03/19 00:48:11;;;;;;;23.92;17.38;;;9.60;99.90;;;;;;4974560;28;20569;-79
2023/03/19 00:50:37;;;;;;;26.35;17.73;;;9.60;99.90;;;;;;4959615;28;20086;-79
2023/03/19 00:53:03;;;;;;;26.05;17.45;;;9.60;99.90;;;;;;4992658;28;20042;-79
2023/03/19 00:55:28;;;;;;;22.48;17.67;;;9.60;99.90;;;;;;4978585;28;20030;-79
2023/03/19 00:57:54;;;;;;;22.10;16.30;;;9.70;99.90;;;;;;4974869;28;20411;-79
2023/03/19 01:00:21;;;;;;;23.52;17.08;;;9.60;99.90;;;;;;4961052;28;20046;-79
2023/03/19 01:02:46;;;;;;;23.40;17.02;;;9.70;99.90;;;;;;4985396;28;20057;-79
2023/03/19 01:05:12;;;;;;;22.70;16.70;;;9.60;99.90;;;;;;4989289;28;20038;-79
2023/03/19 01:07:38;;;;;;;22.45;15.48;;;9.60;99.90;;;;;;4991964;28;20046;-79
2023/03/19 01:10:04;;;;;;;21.60;15.85;;;9.70;99.90;;;;;;4989306;28;20037;-79
2023/03/19 01:12:30;;;;;;;24.27;17.42;;;9.70;99.90;;;;;;4991714;28;20121;-79
2023/03/19 01:14:56;;;;;;;28.92;15.48;;;9.70;99.90;;;;;;4993758;28;20121;-79
2023/03/19 01:17:22;;;;;;;21.20;16.10;;;9.70;99.90;;;;;;4969779;28;20037;-79
2023/03/19 01:19:48;;;;;;;25.98;17.02;;;9.70;99.90;;;;;;4978175;28;20042;-79
2023/03/19 01:22:15;;;;;;;24.73;16.30;;;9.80;99.90;;;;;;4973619;28;20495;-79
2023/03/19 01:24:41;;;;;;;23.40;16.23;;;9.70;99.90;;;;;;4993902;28;20042;-79
2023/03/19 01:27:07;;;;;;;23.35;17.02;;;9.70;99.90;;;;;;4992593;28;20058;-79
2023/03/19 01:29:33;;;;;;;24.50;16.92;;;9.70;99.90;;;;;;5009783;28;20034;-80
2023/03/19 01:31:59;;;;;;;23.95;16.58;;;9.70;99.90;;;;;;4976285;28;20063;-79
2023/03/19 01:34:25;;;;;;;25.13;17.15;;;9.70;99.90;;;;;;4990907;28;20040;-79
2023/03/19 01:36:51;;;;;;;23.50;17.17;;;9.70;99.90;;;;;;4989464;28;20080;-79
2023/03/19 01:39:17;;;;;;;26.08;18.17;;;9.70;99.90;;;;;;4990677;28;20042;-79
2023/03/19 01:41:42;;;;;;;25.48;17.23;;;9.70;99.90;;;;;;4973050;28;20046;-79
2023/03/19 01:44:38;;;;;;;21.40;15.30;;;9.70;99.90;;;;;;4992244;28;20046;-79
2023/03/19 01:47:18;;;;;;;22.98;16.20;;;9.80;99.90;;;;;;4976964;28;20415;-79
2023/03/19 01:49:49;;;;;;;24.52;17.58;;;9.70;99.90;;;;;;4988734;28;20373;-79
2023/03/19 01:52:15;;;;;;;22.85;16.17;;;9.80;99.90;;;;;;4991905;28;20038;-79
2023/03/19 01:54:43;;;;;;;24.52;17.02;;;9.80;99.90;;;;;;4958556;28;20373;-78
2023/03/19 01:57:11;;;;;;;21.02;15.90;;;9.80;99.90;;;;;;4992409;28;20038;-79
2023/03/19 01:59:41;;;;;;;21.48;15.77;;;9.80;99.90;;;;;;4975921;28;20165;-79
2023/03/19 02:02:20;;;;;;;19.15;15.15;;;9.80;99.90;;;;;;4985603;28;20133;-79
2023/03/19 02:04:50;;;;;;;22.42;15.00;;;9.80;99.90;;;;;;4987115;28;20037;-79
2023/03/19 02:07:16;;;;;;;20.38;14.80;;;9.80;99.90;;;;;;4987542;28;20385;-79
2023/03/19 02:09:42;;;;;;;22.65;16.25;;;9.70;99.90;;;;;;4990565;28;20100;-79
2023/03/19 02:12:09;;;;;;;22.85;16.55;;;9.80;99.90;;;;;;4989864;28;20073;-79
2023/03/19 02:14:35;;;;;;;23.90;16.27;;;9.80;99.90;;;;;;4990692;28;20848;-79
2023/03/19 02:17:01;;;;;;;23.75;16.88;;;9.70;99.90;;;;;;4973354;28;20038;-79
2023/03/19 02:19:51;;;;;;;23.65;16.38;;;9.70;99.90;;;;;;4973540;28;20542;-79
2023/03/19 02:22:20;;;;;;;21.38;15.95;;;9.70;99.90;;;;;;4989542;28;20049;-79
2023/03/19 02:25:12;;;;;;;24.15;15.93;;;9.70;99.90;;;;;;4976073;28;20187;-79
2023/03/19 02:27:38;;;;;;;20.40;15.15;;;9.60;99.90;;;;;;5008773;28;20038;-79
2023/03/19 02:30:23;;;;;;;19.67;14.13;;;9.60;99.90;;;;;;4976943;28;20411;-80
2023/03/19 02:32:49;;;;;;;19.85;13.43;;;9.60;99.90;;;;;;4971722;28;20038;-80
2023/03/19 02:35:14;;;;;;;19.42;13.43;;;9.60;99.90;;;;;;4987603;28;20053;-80
2023/03/19 02:37:40;;;;;;;18.70;12.90;;;9.60;99.90;;;;;;4957419;28;20065;-80
2023/03/19 02:40:26;;;;;;;19.50;13.13;;;9.60;99.90;;;;;;4968146;28;20057;-80
2023/03/19 02:42:52;;;;;;;19.20;12.02;;;9.60;99.90;;;;;;5006252;28;20038;-80
2023/03/19 02:45:17;;;;;;;17.00;12.07;;;9.60;99.90;;;;;;4972446;28;20046;-80
2023/03/19 02:47:43;;;;;;;18.70;12.40;;;9.60;99.90;;;;;;4972946;28;20109;-80
2023/03/19 02:50:09;;;;;;;16.42;10.98;;;9.60;99.90;;;;;;4989681;28;20439;-80
2023/03/19 02:52:35;;;;;;;16.38;11.25;;;9.60;99.90;;;;;;4973737;28;20061;-80
2023/03/19 02:55:01;;;;;;;15.82;11.48;;;9.60;99.90;;;;;;4969932;28;20042;-80
2023/03/19 02:57:26;;;;;;;16.05;10.88;;;9.50;99.90;;;;;;4970827;28;20038;-80
2023/03/19 02:59:52;;;;;;;15.05;10.57;;;9.50;99.90;;;;;;4984097;28;20146;-80
2023/03/19 03:02:18;;;;;;;15.80;10.45;;;9.50;99.90;;;;;;4988035;28;20054;-80
2023/03/19 03:04:44;;;;;;;14.45;10.43;;;9.50;99.90;;;;;;4990294;28;20042;-80
2023/03/19 03:07:10;;;;;;;16.92;10.23;;;9.40;99.90;;;;;;4974227;28;20045;-80
2023/03/19 03:09:36;;;;;;;12.98;9.23;;;9.40;99.90;;;;;;4989244;28;20109;-80
2023/03/19 03:12:02;;;;;;;12.98;9.18;;;9.50;99.90;;;;;;4957991;28;20035;-80
2023/03/19 03:14:28;;;;;;;14.57;10.20;;;9.50;99.90;;;;;;4989272;28;20457;-80
2023/03/19 03:16:56;;;;;;;12.68;8.70;;;9.50;99.90;;;;;;4989657;28;20038;-80
2023/03/19 03:19:22;;;;;;;12.63;8.27;;;9.50;99.90;;;;;;4972095;28;20041;-80
2023/03/19 03:21:48;;;;;;;16.60;8.82;;;9.50;99.90;;;;;;4973640;28;20057;-80
2023/03/19 03:24:14;;;;;;;11.75;8.13;;;9.50;99.90;;;;;;4973509;28;20045;-80
2023/03/19 03:26:40;;;;;;;13.73;9.13;;;9.40;99.90;;;;;;4972272;28;20034;-80
2023/03/19 03:29:06;;;;;;;12.10;8.30;;;9.50;99.90;;;;;;4989888;28;20092;-80
2023/03/19 03:31:33;;;;;;;11.32;8.35;;;9.40;99.90;;;;;;4942228;28;20042;-80
2023/03/19 03:34:00;;;;;;;11.07;7.65;;;9.40;99.90;;;;;;4975827;28;20038;-80
2023/03/19 03:36:26;;;;;;;11.43;8.35;;;9.40;99.90;;;;;;4990983;28;20047;-80
2023/03/19 03:38:53;;;;;;;10.73;6.75;;;9.40;99.90;;;;;;4973724;28;20507;-80
2023/03/19 03:41:19;;;;;;;9.32;7.15;;;9.40;99.90;;;;;;4970404;28;20022;-79
2023/03/19 03:43:44;;;;;;;9.10;6.95;;;9.40;99.90;;;;;;4990728;28;20038;-79
2023/03/19 03:46:10;;;;;;;12.88;6.80;;;9.40;99.90;;;;;;4975192;28;20045;-80
2023/03/19 03:48:36;;;;;;;8.60;6.65;;;9.40;99.90;;;;;;4972136;28;20041;-79
2023/03/19 03:51:03;;;;;;;8.27;6.25;;;9.40;99.90;;;;;;4988248;28;20029;-80
2023/03/19 03:53:29;;;;;;;8.88;6.25;;;9.40;99.90;;;;;;4973453;28;20039;-80
2023/03/19 03:55:55;;;;;;;7.72;5.85;;;9.40;99.90;;;;;;4973313;28;20034;-80
2023/03/19 03:58:20;;;;;;;8.25;5.88;;;9.40;99.90;;;;;;4972340;28;20076;-79
2023/03/19 04:00:46;;;;;;;7.82;5.97;;;9.40;99.90;;;;;;4986780;28;20942;-79
2023/03/19 04:03:12;;;;;;;7.60;5.45;;;9.40;99.90;;;;;;4994879;28;20042;-79
2023/03/19 04:05:38;;;;;;;6.03;5.00;;;9.30;99.90;;;;;;4979888;28;20034;-79
2023/03/19 04:08:04;;;;;;;6.70;4.97;;;9.30;99.90;;;;;;4992778;28;20530;-80
2023/03/19 04:10:30;;;;;;;7.15;5.22;;;9.30;99.90;;;;;;4991930;28;20135;-80
2023/03/19 04:12:56;;;;;;;7.43;5.43;;;9.30;99.90;;;;;;4989570;28;20054;-80
2023/03/19 04:15:22;;;;;;;7.13;5.00;;;9.30;99.90;;;;;;4988579;28;20092;-80
2023/03/19 04:17:47;;;;;;;6.47;4.88;;;9.30;99.90;;;;;;4962770;28;20046;-80
2023/03/19 04:20:15;;;;;;;6.03;4.82;;;9.30;99.90;;;;;;4975215;28;20042;-80
2023/03/19 04:22:40;;;;;;;6.60;5.20;;;9.30;99.90;;;;;;4990551;28;20035;-80
2023/03/19 04:25:07;;;;;;;7.00;5.43;;;9.30;99.90;;;;;;4977553;28;20100;-79
2023/03/19 04:27:33;;;;;;;5.85;4.93;;;9.30;99.90;;;;;;4958041;28;20068;-79
2023/03/19 04:29:59;;;;;;;6.22;4.65;;;9.30;99.90;;;;;;4993004;28;20037;-80
2023/03/19 04:32:24;;;;;;;9.45;5.15;;;9.40;99.90;;;;;;4995334;28;20027;-80
2023/03/19 04:34:50;;;;;;;5.75;4.45;;;9.40;99.90;;;;;;4991690;28;20050;-80
2023/03/19 04:37:16;;;;;;;8.15;4.65;;;9.40;99.90;;;;;;4975782;28;20084;-80
2023/03/19 04:39:43;;;;;;;5.72;4.93;;;9.40;99.90;;;;;;4978226;28;20034;-80
2023/03/19 04:42:10;;;;;;;8.73;4.40;;;9.40;99.90;;;;;;4993786;28;20096;-79
2023/03/19 04:44:36;;;;;;;7.95;4.70;;;9.40;99.90;;;;;;4993354;28;20571;-80
2023/03/19 04:47:03;;;;;;;10.05;4.85;;;9.40;99.90;;;;;;4990210;28;20046;-79
2023/03/19 04:49:29;;;;;;;7.20;5.07;;;9.40;99.90;;;;;;4997194;28;20630;-79
2023/03/19 04:51:56;;;;;;;9.07;5.60;;;9.40;99.90;;;;;;4976785;28;20045;-79
2023/03/19 04:54:23;;;;;;;7.63;5.68;;;9.40;99.90;;;;;;4974637;28;20034;-79
2023/03/19 04:56:49;;;;;;;7.30;5.40;;;9.40;99.90;;;;;;4978724;28;20042;-80
2023/03/19 04:59:16;;;;;;;7.18;5.72;;;9.40;99.90;;;;;;4991514;28;20053;-80
2023/03/19 05:01:42;;;;;;;9.55;5.80;;;9.40;99.90;;;;;;4947365;28;20056;-80
2023/03/19 05:04:08;;;;;;;7.43;5.30;;;9.50;99.90;;;;;;4992369;28;20556;-79
2023/03/19 05:06:35;;;;;;;8.43;5.30;;;9.50;99.90;;;;;;4991016;28;20139;-80
2023/03/19 05:09:01;;;;;;;6.88;5.45;;;9.50;99.90;;;;;;5003453;28;20042;-79
2023/03/19 05:11:27;;;;;;;8.27;5.68;;;9.50;99.90;;;;;;5001119;28;20220;-79
2023/03/19 05:13:52;;;;;;;7.20;5.38;;;9.50;99.90;;;;;;4976854;28;20530;-79
2023/03/19 05:16:19;;;;;;;7.68;5.43;;;9.50;99.90;;;;;;4994455;28;20049;-80
2023/03/19 05:18:44;;;;;;;9.18;5.63;;;9.50;99.90;;;;;;4976202;28;20193;-79
2023/03/19 05:21:11;;;;;;;7.22;5.13;;;9.50;99.90;;;;;;4990668;28;20038;-79
2023/03/19 05:23:38;;;;;;;8.38;5.40;;;9.40;99.90;;;;;;4971235;28;20547;-80
2023/03/19 05:26:03;;;;;;;7.65;5.38;;;9.50;99.90;;;;;;4974769;28;20042;-80
2023/03/19 05:28:29;;;;;;;8.32;5.45;;;9.50;99.90;;;;;;4990275;28;20066;-80
2023/03/19 05:30:55;;;;;;;9.70;5.57;;;9.40;99.90;;;;;;4973600;28;20480;-80
2023/03/19 05:33:22;;;;;;;7.43;5.72;;;9.40;99.90;;;;;;4989994;28;20037;-80
2023/03/19 05:35:48;;;;;;;8.38;5.38;;;9.40;99.90;;;;;;4989339;28;20452;-80
2023/03/19 05:38:13;;;;;;;7.75;6.00;;;9.40;99.90;;;;;;4989942;28;20053;-81
2023/03/19 05:40:41;;;;;;;7.53;5.18;;;9.30;99.90;;;;;;4978870;28;20057;-80
2023/03/19 05:43:08;;;;;;;9.95;6.05;;;9.30;99.90;;;;;;4980906;28;20089;-80
2023/03/19 05:45:34;;;;;;;8.52;5.75;;;9.30;99.90;;;;;;4997283;28;20085;-80
2023/03/19 05:48:02;;;;;;;7.40;5.13;;;9.30;99.90;;;;;;4993402;28;20041;-79
2023/03/19 05:50:27;;;;;;;6.95;5.63;;;9.30;99.90;;;;;;5017935;28;20034;-80
2023/03/19 05:52:53;;;;;;;9.27;6.10;;;9.30;99.90;;;;;;4974437;28;20030;-80
2023/03/19 05:55:19;;;;;;;6.85;6.05;;;9.30;99.90;;;;;;4966911;28;20050;-79
2023/03/19 05:57:45;;;;;;;7.05;5.43;;;9.40;99.90;;;;;;5007806;28;20038;-80
2023/03/19 06:00:12;;;;;;;8.85;5.50;;;9.40;99.90;;;;;;4966944;28;20068;-79
2023/03/19 06:02:38;;;;;;;9.60;6.13;;;9.40;99.90;;;;;;5015306;28;20053;-79
2023/03/19 06:05:05;;;;;;;9.88;5.90;;;9.40;99.90;;;;;;5008861;28;20942;-80
2023/03/19 06:07:30;;;;;;;9.18;6.55;;;9.40;99.90;;;;;;5016452;28;20246;-80
2023/03/19 06:09:56;;;;;;;9.77;5.88;;;9.30;99.90;;;;;;5001040;28;20034;-79
2023/03/19 06:12:22;;;;;;;13.02;6.25;;;9.40;99.90;;;;;;5000810;28;20049;-79
2023/03/19 06:14:48;;;;;;;8.93;5.82;;;9.30;99.90;;;;;;4987348;28;20054;-79
2023/03/19 06:17:14;;;;;;;8.65;6.38;;;9.40;99.90;;;;;;4960123;28;20037;-80
2023/03/19 06:19:40;;;;;;;8.02;6.35;;;9.30;99.90;;;;;;4990017;28;20057;-80
2023/03/19 06:22:06;;;;;;;8.45;5.60;;;9.30;99.90;;;;;;4995255;28;20030;-80
2023/03/19 06:24:32;;;;;;;11.02;6.38;;;9.30;99.90;;;;;;4993032;28;20547;-79
2023/03/19 06:26:58;;;;;;;8.00;6.00;;;9.30;99.90;;;;;;4994188;28;20158;-80
2023/03/19 06:29:24;;;;;;;7.63;5.95;;;9.30;99.90;;;;;;4980454;28;20073;-80
2023/03/19 06:31:51;;;;;;;9.88;6.35;;;9.30;99.90;;;;;;4976351;28;20089;-80
2023/03/19 06:34:17;;;;;;;10.85;6.93;;;9.30;99.90;;;;;;4998908;28;20057;-79
2023/03/19 06:36:42;;;;;;;9.60;6.45;;;9.30;99.90;;;;;;4989856;28;20507;-79
2023/03/19 06:39:09;;;;;;;10.00;6.90;;;9.30;99.90;;;;;;4989935;28;20073;-79
2023/03/19 06:41:36;;;;;;;11.40;6.70;;;9.40;99.90;;;;;;4978713;28;20037;-79
2023/03/19 06:44:02;;;;;;;9.48;6.95;;;9.40;99.90;;;;;;5002675;28;20109;-79
2023/03/19 06:46:28;;;;;;;9.00;6.63;;;9.40;99.90;;;;;;4996299;28;20306;-79
2023/03/19 06:48:54;;;;;;;9.48;6.82;;;9.50;99.90;;;;;;5008668;28;20041;-79
2023/03/19 06:51:20;;;;;;;10.63;7.15;;;9.50;99.90;;;;;;4961293;28;20057;-79
2023/03/19 06:53:45;;;;;;;11.07;7.50;;;9.60;99.90;;;;;;4990455;28;20054;-79
2023/03/19 06:56:12;;;;;;;10.65;6.88;;;9.60;99.90;;;;;;4974336;28;20044;-80
2023/03/19 06:58:37;;;;;;;9.07;7.13;;;9.70;99.90;;;;;;4997326;28;20070;-80
2023/03/19 07:01:03;;;;;;;10.18;7.15;;;9.70;99.90;;;;;;4988712;28;20128;-79
2023/03/19 07:03:29;;;;;;;10.38;6.97;;;9.70;99.90;;;;;;4990964;28;20042;-80
2023/03/19 07:05:55;;;;;;;10.50;7.07;;;9.80;99.90;;;;;;4990225;28;20042;-80
2023/03/19 07:08:21;;;;;;;10.65;6.95;;;9.80;99.90;;;;;;4992648;28;20034;-79
2023/03/19 07:10:47;;;;;;;11.18;7.65;;;9.80;99.90;;;;;;4992185;28;20472;-79
2023/03/19 07:13:12;;;;;;;11.80;8.30;;;9.80;99.90;;;;;;4977540;28;20035;-79
2023/03/19 07:15:39;;;;;;;10.43;7.50;;;9.90;99.90;;;;;;4991360;28;20141;-81
2023/03/19 07:18:05;;;;;;;11.65;8.32;;;9.90;99.90;;;;;;4974207;28;20125;-80
2023/03/19 07:20:30;;;;;;;11.20;8.00;;;10.00;99.90;;;;;;5018408;28;20054;-77
2023/03/19 07:22:56;;;;;;;13.30;8.43;;;10.10;99.90;;;;;;4983110;28;20091;-76
2023/03/19 07:25:22;;;;;;;10.52;8.52;;;10.10;99.90;;;;;;4983585;28;20049;-78
2023/03/19 07:27:48;;;;;;;12.55;8.50;;;10.10;99.90;;;;;;4978490;28;20046;-77
2023/03/19 07:30:14;;;;;;;10.65;7.80;;;10.10;99.90;;;;;;4974313;28;20451;-81
2023/03/19 07:32:41;;;;;;;11.88;8.63;;;10.20;99.90;;;;;;4990541;28;20073;-80
2023/03/19 07:35:08;;;;;;;12.85;8.52;;;10.10;99.90;;;;;;5014077;28;20049;-77
2023/03/19 07:37:34;;;;;;;11.10;8.02;;;10.10;99.90;;;;;;4994929;28;20117;-76
2023/03/19 07:40:00;;;;;;;11.65;8.02;;;10.10;99.90;;;;;;5004707;28;20092;-76
2023/03/19 07:42:26;;;;;;;11.98;8.35;;;10.10;99.90;;;;;;4994404;28;20042;-76
2023/03/19 07:44:51;;;;;;;12.15;8.13;;;10.10;99.90;;;;;;5004862;28;20069;-76
2023/03/19 07:47:17;;;;;;;11.88;8.77;;;10.10;99.90;;;;;;4988476;28;20570;-76
2023/03/19 07:49:43;;;;;;;10.82;8.00;;;10.20;99.90;;;;;;4979248;28;20038;-76
2023/03/19 07:52:09;;;;;;;13.23;8.93;;;10.20;99.90;;;;;;5011163;28;20108;-81
2023/03/19 07:54:35;;;;;;;11.38;8.90;;;10.30;99.90;;;;;;4990276;28;20034;-81
2023/03/19 07:57:01;;;;;;;13.13;9.55;;;10.40;99.90;;;;;;4987059;28;20037;-81
2023/03/19 07:59:26;;;;;;;12.40;9.38;;;10.50;99.90;;;;;;4980953;28;20376;-81
2023/03/19 08:01:52;;;;;;;13.50;9.90;;;10.60;99.90;;;;;;4979286;28;20045;-81
2023/03/19 08:04:18;;;;;;;14.88;10.00;;;10.70;99.90;;;;;;4981794;28;20684;-81
2023/03/19 08:06:44;;;;;;;14.93;10.20;;;10.90;99.90;;;;;;5006409;28;20487;-81
2023/03/19 08:09:10;;;;;;;15.10;11.15;;;11.10;99.90;;;;;;4980132;28;20045;-81
2023/03/19 08:11:36;;;;;;;15.13;10.95;;;11.30;99.90;;;;;;4977577;28;20038;-81
2023/03/19 08:14:02;;;;;;;14.68;10.43;;;11.30;99.90;;;;;;5000473;28;20046;-82
2023/03/19 08:16:27;;;;;;;13.52;10.40;;;11.20;99.90;;;;;;4996142;28;20046;-80
2023/03/19 08:18:53;;;;;;;13.90;10.68;;;11.10;99.90;;;;;;5013727;28;20149;-80
2023/03/19 08:21:19;;;;;;;16.35;10.27;;;11.20;99.90;;;;;;5007290;28;20073;-82
2023/03/19 08:23:45;;;;;;;15.23;9.73;;;11.20;99.90;;;;;;4982815;28;20088;-81
2023/03/19 08:26:10;;;;;;;14.32;10.48;;;11.20;99.90;;;;;;4965372;28;20066;-80
2023/03/19 08:28:37;;;;;;;14.73;10.27;;;11.30;99.90;;;;;;4971152;28;20112;-81
2023/03/19 08:31:11;;;;;;;13.27;9.60;;;11.40;99.90;;;;;;5012468;28;20679;-80
2023/03/19 08:33:37;;;;;;;13.75;9.60;;;11.50;99.90;;;;;;4987364;28;20045;-81
2023/03/19 08:36:08;;;;;;;14.38;10.23;;;11.60;99.90;;;;;;4993146;28;20515;-80
2023/03/19 08:38:34;;;;;;;14.73;9.73;;;11.70;99.90;;;;;;4992127;28;20030;-82
2023/03/19 08:41:01;;;;;;;13.93;8.77;;;12.00;99.90;;;;;;4978151;28;20461;-81
2023/03/19 08:43:28;;;;;;;15.27;10.00;;;12.10;99.90;;;;;;4986420;28;20686;-80
2023/03/19 08:45:53;;;;;;;15.43;10.52;;;12.00;99.90;;;;;;4963606;28;20053;-81
2023/03/19 08:48:19;;;;;;;16.15;10.32;;;11.90;99.90;;;;;;4960902;28;20042;-81
2023/03/19 08:50:50;;;;;;;11.65;8.82;;;11.70;99.90;;;;;;4992807;28;20039;-81
2023/03/19 08:53:17;;;;;;;12.82;8.48;;;11.70;99.90;;;;;;4975921;28;20479;-81
2023/03/19 08:55:43;;;;;;;13.55;9.05;;;11.60;99.90;;;;;;4976229;28;20566;-81
2023/03/19 08:58:09;;;;;;;13.45;9.00;;;11.40;99.90;;;;;;4994212;28;20041;-81
2023/03/19 09:00:34;;;;;;;15.68;10.18;;;11.30;99.90;;;;;;4991525;28;20062;-81
2023/03/19 09:03:00;;;;;;;12.40;10.15;;;11.40;99.90;;;;;;4976990;28;20739;-81
2023/03/19 09:05:26;;;;;;;12.80;9.73;;;11.40;99.90;;;;;;4995028;28;20133;-81
2023/03/19 09:07:51;;;;;;;12.93;9.02;;;11.50;99.90;;;;;;4977453;28;20037;-81
2023/03/19 09:10:17;;;;;;;11.95;9.15;;;11.50;99.90;;;;;;4958456;28;20041;-81
2023/03/19 09:12:43;;;;;;;13.70;9.40;;;11.50;99.90;;;;;;4975217;28;20448;-81
2023/03/19 09:15:09;;;;;;;12.57;9.25;;;11.70;99.90;;;;;;4977927;28;20034;-81
2023/03/19 09:17:34;;;;;;;15.25;9.38;;;11.70;99.90;;;;;;4992625;28;20600;-81
2023/03/19 09:20:00;;;;;;;14.35;9.05;;;11.90;99.90;;;;;;4978461;28;20050;-80
2023/03/19 09:22:26;;;;;;;13.02;9.35;;;12.10;99.90;;;;;;4992752;28;20117;-80
2023/03/19 09:24:52;;;;;;;14.43;9.90;;;12.00;99.90;;;;;;4975745;28;20455;-79
2023/03/19 09:27:18;;;;;;;13.80;9.20;;;11.80;99.90;;;;;;4955566;28;20045;-79
2023/03/19 09:29:44;;;;;;;15.05;9.98;;;11.80;99.90;;;;;;4976951;28;20601;-80
2023/03/19 09:32:10;;;;;;;13.10;9.15;;;11.70;99.90;;;;;;4959044;28;20045;-77
2023/03/19 09:34:35;;;;;;;11.65;8.35;;;11.60;99.90;;;;;;4944314;28;20058;-77
2023/03/19 09:37:01;;;;;;;13.73;8.88;;;11.70;99.90;;;;;;4958947;28;20383;-76
2023/03/19 09:39:27;;;;;;;12.68;8.95;;;11.60;99.90;;;;;;4976993;28;20095;-78
2023/03/19 09:42:31;;;;;;;12.48;8.40;;;11.80;99.90;;;;;;4975753;28;20065;-77
2023/03/19 09:44:57;;;;;;;10.25;7.80;;;12.90;99.90;;;;;;4960947;28;20076;-77
2023/03/19 09:47:27;;;;;;;11.68;7.88;;;13.90;99.90;;;;;;4975870;28;20049;-78
2023/03/19 09:50:01;;;;;;;9.75;7.18;;;14.10;99.90;;;;;;4959888;28;20362;-78
2023/03/19 09:52:48;;;;;;;10.35;7.85;;;14.00;99.90;;;;;;4961036;28;20484;-78
2023/03/19 09:55:31;;;;;;;11.02;8.05;;;14.00;99.90;;;;;;4979867;28;20060;-79
2023/03/19 09:57:57;;;;;;;9.98;6.93;;;13.80;99.90;;;;;;4993206;28;20050;-79
2023/03/19 10:00:35;;;;;;;9.80;7.78;;;13.50;99.90;;;;;;4991618;28;20158;-79
2023/03/19 10:03:25;;;;;;;9.55;7.40;;;13.30;99.90;;;;;;4975442;28;20038;-79
2023/03/19 10:05:58;;;;;;;10.30;7.82;;;13.00;99.90;;;;;;4994153;28;20096;-76
2023/03/19 10:08:37;;;;;;;13.05;8.25;;;13.10;99.90;;;;;;5006877;28;20042;-76
2023/03/19 10:11:36;;;;;;;10.20;7.55;;;13.20;99.90;;;;;;4992583;28;20046;-77
2023/03/19 10:14:36;;;;;;;11.48;8.02;;;13.00;99.90;;;;;;4980589;28;20519;-77
2023/03/19 10:17:04;;;;;;;12.57;9.27;;;12.90;99.90;;;;;;4995840;28;20172;-78
2023/03/19 10:19:57;;;;;;;9.18;7.68;;;12.90;99.90;;;;;;5140474;27;20130;-68
2023/03/19 10:22:33;;;;;;;10.93;7.72;;;13.20;99.90;;;;;;5131758;27;20490;-68
2023/03/19 10:25:00;;;;;;;10.40;7.32;;;13.50;99.90;;;;;;5129260;27;20492;-68
2023/03/19 10:27:29;;;;;;;13.10;7.97;;;14.40;99.90;;;;;;5133521;27;20073;-68
2023/03/19 10:29:55;;;;;;;11.55;8.82;;;14.80;99.90;;;;;;5136828;27;20039;-68
2023/03/19 10:32:40;;;;;;;9.80;7.32;;;14.40;99.90;;;;;;5141202;27;20041;-68
2023/03/19 10:35:37;;;;;;;9.90;7.18;;;14.20;99.90;;;;;;5138086;27;20076;-68
2023/03/19 10:38:24;;;;;;;11.40;7.25;;;13.80;99.90;;;;;;5135217;27;20051;-68
2023/03/19 10:41:02;;;;;;;8.07;6.75;;;13.50;99.90;;;;;;5139950;27;20044;-68
2023/03/19 10:43:30;;;;;;;8.82;6.90;;;13.50;99.90;;;;;;5130766;27;20063;-68
2023/03/19 10:45:57;;;;;;;9.00;7.25;;;13.60;99.90;;;;;;5126772;27;20077;-66
2023/03/19 10:48:25;;;;;;;8.23;6.97;;;14.00;99.90;;;;;;5126079;27;20046;-68
2023/03/19 10:51:04;;;;;;;9.43;7.30;;;14.10;99.90;;;;;;5127375;27;20365;-67
2023/03/19 10:53:36;;;;;;;9.00;6.95;;;13.90;99.90;;;;;;5130621;27;20045;-68
2023/03/19 10:56:05;;;;;;;10.73;7.57;;;14.00;99.90;;;;;;5137247;27;20081;-68
2023/03/19 10:58:34;;;;;;;8.98;6.32;;;13.80;99.90;;;;;;5138426;27;20038;-68
2023/03/19 11:01:05;;;;;;;13.50;7.22;;;13.50;99.90;;;;;;5137053;27;20543;-68
2023/03/19 11:03:32;;;;;;;10.52;7.03;;;13.70;99.90;;;;;;5135369;27;20039;-68
2023/03/19 11:06:06;;;;;;;9.40;7.22;;;14.20;99.90;;;;;;5112854;27;20443;-68
2023/03/19 11:08:36;;;;;;;11.95;7.72;;;14.70;99.90;;;;;;5129443;27;20039;-68
2023/03/19 11:11:02;;;;;;;10.15;7.00;;;15.40;99.90;;;;;;5129050;27;20492;-68
2023/03/19 11:13:29;;;;;;;10.35;7.22;;;16.00;99.90;;;;;;5100299;27;20615;-68
2023/03/19 11:15:59;;;;;;;11.55;7.95;;;16.30;99.90;;;;;;5121791;27;20067;-68
2023/03/19 11:18:35;;;;;;;10.77;8.38;;;16.10;99.90;;;;;;5127967;27;20567;-68
2023/03/19 11:21:26;;;;;;;10.93;7.85;;;15.90;99.90;;;;;;5130354;27;20068;-68
2023/03/19 11:24:00;;;;;;;11.82;8.18;;;15.90;99.90;;;;;;5130851;27;20047;-68
2023/03/19 11:26:27;;;;;;;9.30;7.82;;;15.90;99.90;;;;;;5132701;27;20040;-68
2023/03/19 11:29:00;;;;;;;11.10;8.13;;;15.70;99.90;;;;;;5111210;27;20046;-68
2023/03/19 11:31:33;;;;;;;10.90;8.57;;;15.70;99.90;;;;;;5118811;27;20043;-68
2023/03/19 11:34:08;;;;;;;11.65;9.20;;;15.30;99.90;;;;;;5116730;27;20075;-68
2023/03/19 11:36:50;;;;;;;10.10;8.10;;;15.30;99.90;;;;;;5118118;27;20109;-68
2023/03/19 11:39:29;;;;;;;9.80;7.47;;;15.10;99.90;;;;;;5125010;27;20496;-68
2023/03/19 11:42:05;;;;;;;10.75;7.22;;;15.30;99.90;;;;;;5114428;27;20054;-68
2023/03/19 11:45:00;;;;;;;9.23;7.47;;;15.30;99.90;;;;;;5122607;27;20041;-68
2023/03/19 11:47:51;;;;;;;10.35;7.53;;;15.20;99.90;;;;;;5121132;27;20051;-68
2023/03/19 11:50:46;;;;;;;10.18;7.72;;;15.00;99.90;;;;;;5116570;27;20039;-68
2023/03/19 11:53:22;;;;;;;10.45;7.60;;;15.20;99.90;;;;;;5094410;27;20431;-68
2023/03/19 11:55:51;;;;;;;11.13;8.02;;;15.40;99.90;;;;;;5117010;27;20074;-68
2023/03/19 11:58:28;;;;;;;9.50;7.43;;;15.30;99.90;;;;;;5118088;27;20079;-68
2023/03/19 12:00:56;;;;;;;13.10;8.18;;;15.30;99.90;;;;;;5122493;27;20111;-68
2023/03/19 12:03:46;;;;;;;10.30;8.32;;;15.50;99.90;;;;;;5121586;27;20145;-68
2023/03/19 12:06:11;;;;;;;10.35;7.20;;;15.80;99.90;;;;;;5114833;27;20110;-68
2023/03/19 12:08:52;;;;;;;9.52;7.45;;;15.70;99.90;;;;;;5116755;27;20134;-68
2023/03/19 12:11:22;;;;;;;10.05;7.72;;;15.90;99.90;;;;;;5100001;27;20065;-68
2023/03/19 12:14:15;;;;;;;11.55;7.18;;;16.00;99.90;;;;;;5122684;27;20425;-68
2023/03/19 12:16:56;;;;;;;11.52;7.72;;;16.10;99.90;;;;;;5125206;27;20538;-68
2023/03/19 12:19:30;;;;;;;10.80;7.97;;;16.20;99.90;;;;;;5119536;27;20052;-68
2023/03/19 12:22:20;;;;;;;11.88;8.52;;;16.30;99.90;;;;;;5123630;27;20065;-68
2023/03/19 12:25:17;;;;;;;10.88;7.70;;;16.20;99.90;;;;;;5123123;27;20458;-69
2023/03/19 12:28:24;;;;;;;9.93;7.80;;;16.50;99.90;;;;;;5124216;27;20058;-69
2023/03/19 12:31:11;;;;;;;12.30;8.00;;;16.10;99.90;;;;;;5099543;27;20412;-69
2023/03/19 12:34:01;;;;;;;11.13;7.38;;;16.30;99.90;;;;;;5115823;27;20042;-69
2023/03/19 12:36:32;;;;;;;10.00;7.82;;;16.40;99.90;;;;;;5116626;27;20043;-69
2023/03/19 12:39:14;;;;;;;9.07;7.20;;;16.50;99.90;;;;;;5121163;27;20032;-69
2023/03/19 12:41:50;;;;;;;10.18;7.30;;;16.40;99.90;;;;;;5098864;27;20171;-69
2023/03/19 12:44:23;;;;;;;9.93;8.07;;;16.40;99.90;;;;;;5121527;27;20381;-68
2023/03/19 12:47:15;;;;;;;12.15;8.18;;;16.50;99.90;;;;;;5097114;27;20040;-68
2023/03/19 12:49:54;;;;;;;11.57;7.72;;;16.50;99.90;;;;;;5104473;27;20103;-68
2023/03/19 12:52:23;;;;;;;11.48;7.97;;;16.30;99.90;;;;;;5118941;27;20063;-68
2023/03/19 12:55:14;;;;;;;14.48;8.98;;;15.80;99.90;;;;;;5120002;27;20115;-68